CheckWX is a tool to help pilots better visualize weather data.  It is not intended as a substitute for an official pre-flight weather briefing.

18:40:05 UTC

KDKX METAR
Knoxville Downtown Island Airport
Knoxville, Tennessee, USA
Current

25 mins ago

KDKX 261815Z AUTO VRB04G10KT 10SM BKN023 OVC055 12/06 A3022 RMK A01
Observed
Mar-26 @ 18:15 UTC
Wind
  • Variable at 4 KTS
  • Gusting to 10 KTS
Visibility
10 SM
Flight Rules
MVFR
Cloud Levels
  • Broken at 2,300' AGL
  • Overcast at 5,500' AGL
Temperature
12°C / 54°F
Dewpoint
C / 43°F
Humidity
67%
Altimeter
30.22" Hg
Pressure
1023.42 hPa
Previous

45 mins ago

KDKX 261755Z AUTO VRB06KT 10SM OVC022 11/06 A3022 RMK A01
Observed
Mar-26 @ 17:55 UTC
Wind
  • Variable at 6 KTS
Visibility
10 SM
Flight Rules
MVFR
Cloud Levels
  • Overcast at 2,200' AGL
Temperature
11°C / 52°F
Dewpoint
C / 43°F
Humidity
72%
Altimeter
30.22" Hg
Pressure
1023.42 hPa
Previous

1 hour ago

KDKX 261735Z AUTO VRB04KT 10SM OVC021 10/05 A3023 RMK A01
Observed
Mar-26 @ 17:35 UTC
Wind
  • Variable at 4 KTS
Visibility
10 SM
Flight Rules
MVFR
Cloud Levels
  • Overcast at 2,100' AGL
Temperature
10°C / 50°F
Dewpoint
C / 41°F
Humidity
71%
Altimeter
30.23" Hg
Pressure
1023.72 hPa